Avoca, New York
Current Conditions -  °F | °C
As of 5:36 AM on Wednesday 22 Oct 2014 (Local Time) from KDSV Reporting Station
Overcast Overcast  
Wind Chill: 41°   Ceiling: 800
Heat Index: 46°   Visibility: 10mi
Dew Point: 44°   Wind: 10mph
Humidity: 93%   Direction: 310°NW
Pressure: 30.11"   Gusts: NA
Location:  42.41°N, 77.42°W
Report Text: KDSV 220936Z AUTO 31009KT 10SM OVC008 08/07 A3011 RMK AO2 RAB17E33 CIG 005V010 P0000 T00780067
Loading
Personal Weather Stations






























Interactive Weather Map New forecast layout! Learn more

10-Day Weather Forecast

Advertisements
Track Severe Weather on mobile